Airfield :
LOGIN :

Register | Disclaimer

   EN    FR    IT 

 










Legend :    VFR   Marginal VFR   IFR   Intensive IFR   Very Intensive IFR
Visi :
Ceiling :
>= 8 km
>= 3000ft
5 to 8 km
1000 to 3000 ft
1500m to 5 km
500 to 1000 ft
800 to 1500m
200 to 500 ft
< 800m
< 200 ft
Symbols :   Thunderstorms  Fog  Heavy snow  Heavy precipitations  Wind > 20 kt
SIGMETs :     Misc.  Thunderstorms  Icing  Turbulence  Mountain Waves  Volcanic Ashes






- Airport Elevation : 93 ft
- IATA code : HDF


EDAH - Heringsdorf

CURRENT METAR :
  • 231750Z AUTO 05002KT 9999 // BKN080/// 18/15 Q1015

EXPIRED METARs :
  • 231720Z AUTO VRB01KT 9999 // OVC069/// 18/16 Q1015
  • 231650Z 31003KT 270V010 9999 FEW033 18/15 Q1015
  • 231620Z 28003KT 250V310 9999 FEW023 18/14 Q1014
  • 231550Z VRB02KT 9999 FEW019 18/15 Q1014
  • 231520Z 27003KT 220V010 9999 SCT021 19/15 Q1014
  • 231450Z 34003KT 290V010 9999 FEW018 SCT021 OVC035 18/15 Q1014
  • 231420Z 31004KT 260V350 9999 FEW016 SCT018 18/15 Q1014
  • 231350Z 28006KT 260V320 9999 FEW018 18/14 Q1014
  • 231320Z 29007KT 260V320 9999 FEW014 SCT024 17/14 Q1014

TAF TAF EDAH
Valid from the 23 at 18:00 until the 24 at 03:00 UTC


231700Z 2318/2403 VRB02KT 9999 SCT030
PROB40
TEMPO 2323/2403 1000 BR



MET'MAP, your aeronautical weather chart ! - Copyright ORBIFLY December 2007 - Disclaimer

ORBIFLY MET'MAP TEAM :

Programming & Development : Alexandra Zaïnal
Original concept : Baudouin d'Aumeries
Technical & hardware support : Manuel Goepfert
Assistance : Marc-Olivier Méhu




SOURCES & CREDITS :

   NOAA